createdAt,value
2019-04-22T00:00:39.275Z,39.50
2019-04-22T00:01:38.147Z,43.10
2019-04-22T00:02:43.565Z,42.40
2019-04-22T00:03:45.529Z,36.90
2019-04-22T00:04:53.661Z,41.60
2019-04-22T00:05:58.858Z,36.60
2019-04-22T00:06:58.162Z,36.10
2019-04-22T00:08:06.852Z,38.90
2019-04-22T00:09:02.265Z,37.30
2019-04-22T00:10:06.355Z,37.70
2019-04-22T00:11:07.956Z,39.40
2019-04-22T00:12:06.350Z,37.40
2019-04-22T00:13:00.081Z,35.50
2019-04-22T00:14:01.246Z,37.10
2019-04-22T00:15:01.931Z,35.30
2019-04-22T00:15:58.430Z,34.90
2019-04-22T00:17:08.542Z,40.50
2019-04-22T00:18:07.797Z,38.10
2019-04-22T00:19:15.223Z,36.40
2019-04-22T00:20:06.074Z,33.30
2019-04-22T00:21:04.476Z,32.90
2019-04-22T00:22:12.971Z,33.20
2019-04-22T00:22:56.679Z,37.10
2019-04-22T00:24:08.825Z,33.70
2019-04-22T00:25:10.476Z,34.60
2019-04-22T00:26:05.292Z,34.10
2019-04-22T00:27:03.835Z,37.90
2019-04-22T00:28:05.046Z,35.80
2019-04-22T00:29:10.173Z,38.20
2019-04-22T00:30:07.334Z,33.50
2019-04-22T00:31:05.045Z,33.10
2019-04-22T00:32:03.447Z,33.70
2019-04-22T00:33:05.709Z,34.10
2019-04-22T00:33:59.165Z,32.80
2019-04-22T00:35:03.910Z,33.50
2019-04-22T00:36:04.031Z,31.70
2019-04-22T00:37:01.004Z,29.70
2019-04-22T00:38:03.490Z,30.00
2019-04-22T00:39:07.480Z,35.00
2019-04-22T00:39:58.894Z,31.90
2019-04-22T00:41:04.329Z,31.50
2019-04-22T00:42:01.807Z,33.10
2019-04-22T00:43:03.307Z,35.40
2019-04-22T00:44:02.670Z,34.40
2019-04-22T00:45:09.447Z,34.60
2019-04-22T00:46:02.198Z,33.40
2019-04-22T00:47:08.659Z,34.60
2019-04-22T00:48:10.976Z,30.40
2019-04-22T00:49:49.432Z,31.80
2019-04-22T00:50:14.473Z,36.80
2019-04-22T00:51:05.830Z,31.70
2019-04-22T00:52:15.531Z,36.00
2019-04-22T00:53:03.794Z,33.00
2019-04-22T00:54:03.501Z,32.70
2019-04-22T00:55:05.453Z,32.00
2019-04-22T00:57:04.124Z,32.70
2019-04-22T00:58:05.192Z,33.00
2019-04-22T00:58:58.830Z,35.70
2019-04-22T01:00:06.993Z,32.80
2019-04-22T01:01:04.648Z,33.50
2019-04-22T01:02:07.618Z,36.60
2019-04-22T01:03:07.409Z,29.80
2019-04-22T01:04:14.576Z,31.60
2019-04-22T01:05:00.788Z,30.40
2019-04-22T01:06:02.995Z,32.00
2019-04-22T01:07:09.342Z,34.70
2019-04-22T01:08:09.762Z,29.90
2019-04-22T01:09:07.136Z,28.80
2019-04-22T01:10:06.629Z,30.50
2019-04-22T01:11:08.636Z,32.10
2019-04-22T01:11:59.733Z,32.70
2019-04-22T01:12:57.242Z,29.30
2019-04-22T01:14:01.295Z,27.50
2019-04-22T01:15:05.785Z,30.80
2019-04-22T01:16:06.814Z,29.70
2019-04-22T01:17:01.487Z,29.60
2019-04-22T01:18:05.339Z,29.20
2019-04-22T01:19:00.544Z,29.60
2019-04-22T01:20:15.849Z,30.70
2019-04-22T01:21:58.441Z,27.60
2019-04-22T01:22:58.938Z,29.50
2019-04-22T01:23:59.446Z,26.40
2019-04-22T01:24:57.597Z,25.90
2019-04-22T01:25:57.027Z,34.50
2019-04-22T01:26:53.760Z,25.60
2019-04-22T01:27:54.658Z,26.20
2019-04-22T01:28:50.053Z,31.40
2019-04-22T01:29:48.901Z,25.70
2019-04-22T01:30:48.200Z,28.50
2019-04-22T01:31:40.621Z,27.80
2019-04-22T01:32:41.857Z,29.80
2019-04-22T01:33:44.171Z,28.20
2019-04-22T01:34:52.610Z,25.50
2019-04-22T01:35:58.369Z,27.90
2019-04-22T01:36:57.674Z,27.30
2019-04-22T01:37:58.892Z,26.70
2019-04-22T01:39:07.218Z,26.50
2019-04-22T01:40:04.488Z,24.40
2019-04-22T01:41:12.985Z,29.50
2019-04-22T01:43:10.094Z,26.50
2019-04-22T01:44:25.330Z,23.00
2019-04-22T01:45:07.242Z,27.70
2019-04-22T01:47:08.013Z,24.60
2019-04-22T01:48:02.546Z,21.80
2019-04-22T01:49:10.358Z,23.10
2019-04-22T01:50:06.141Z,21.40
2019-04-22T01:51:02.367Z,25.00
2019-04-22T01:52:18.653Z,23.90
2019-04-22T01:53:06.013Z,23.70
2019-04-22T01:54:05.204Z,25.50
2019-04-22T01:55:12.663Z,23.60
2019-04-22T01:56:08.899Z,22.80
2019-04-22T01:57:20.775Z,23.70
2019-04-22T01:57:59.882Z,25.70
2019-04-22T01:58:54.979Z,22.40
2019-04-22T01:59:56.146Z,22.00
2019-04-22T02:01:08.292Z,22.60
2019-04-22T02:02:02.623Z,20.20
2019-04-22T02:03:07.138Z,21.20
2019-04-22T02:04:14.386Z,21.50
2019-04-22T02:05:10.613Z,24.80
2019-04-22T02:06:08.448Z,20.90
2019-04-22T02:07:02.137Z,21.70
2019-04-22T02:08:06.760Z,23.00
2019-04-22T02:09:14.019Z,19.90
2019-04-22T02:10:04.875Z,19.70
2019-04-22T02:11:07.788Z,22.60
2019-04-22T02:12:05.905Z,20.60
2019-04-22T02:12:54.044Z,20.20
2019-04-22T02:14:04.623Z,17.40
2019-04-22T02:15:05.666Z,22.00
2019-04-22T02:16:06.699Z,18.50
2019-04-22T02:18:11.047Z,20.80
2019-04-22T02:19:11.231Z,21.10
2019-04-22T02:20:05.054Z,18.50
2019-04-22T02:21:03.342Z,19.10
2019-04-22T02:22:04.178Z,20.40
2019-04-22T02:24:02.703Z,20.30
2019-04-22T02:25:09.067Z,22.80
2019-04-22T02:27:13.546Z,22.90
2019-04-22T02:28:12.914Z,22.50
2019-04-22T02:29:01.912Z,22.00
2019-04-22T02:30:01.047Z,22.00
2019-04-22T02:32:19.406Z,20.20
2019-04-22T02:33:34.620Z,19.90
2019-04-22T02:34:14.007Z,20.80
2019-04-22T02:35:10.959Z,20.90
2019-04-22T02:37:12.491Z,20.10
2019-04-22T02:38:21.524Z,20.80
2019-04-22T02:39:15.882Z,20.50
2019-04-22T02:41:22.175Z,20.50
2019-04-22T02:43:11.774Z,19.40
2019-04-22T02:45:26.006Z,19.40
2019-04-22T02:46:26.752Z,18.60
2019-04-22T02:47:20.473Z,22.90
2019-04-22T02:49:25.170Z,18.80
2019-04-22T02:50:06.492Z,21.20
2019-04-22T02:52:07.661Z,18.00
2019-04-22T02:52:09.373Z,18.40
2019-04-22T02:53:18.476Z,19.10
2019-04-22T02:54:31.649Z,17.60
2019-04-22T02:55:07.312Z,21.70
2019-04-22T02:56:25.675Z,17.40
2019-04-22T02:57:13.720Z,18.50
2019-04-22T02:58:05.599Z,17.10
2019-04-22T02:59:09.967Z,17.40
2019-04-22T03:01:18.274Z,18.30
2019-04-22T03:02:33.896Z,21.20
2019-04-22T03:04:16.740Z,17.20
2019-04-22T03:05:12.310Z,17.90
2019-04-22T03:07:05.408Z,17.40
2019-04-22T03:08:14.875Z,14.60
2019-04-22T03:10:09.979Z,18.10
2019-04-22T03:11:15.288Z,16.30
2019-04-22T03:12:21.708Z,16.30
2019-04-22T03:13:21.660Z,19.80
2019-04-22T03:14:04.834Z,18.50
2019-04-22T03:15:07.882Z,17.20
2019-04-22T03:16:17.727Z,16.60
2019-04-22T03:17:09.969Z,14.70
2019-04-22T03:18:09.570Z,17.20
2019-04-22T03:19:18.112Z,15.20
2019-04-22T03:22:12.666Z,18.70
2019-04-22T03:24:20.273Z,18.00
2019-04-22T03:25:42.390Z,14.90
2019-04-22T03:27:08.051Z,17.30
2019-04-22T03:28:11.381Z,15.30
2019-04-22T03:29:04.179Z,15.90
2019-04-22T03:31:44.020Z,14.50
2019-04-22T03:33:19.097Z,14.50
2019-04-22T03:34:55.177Z,15.80
2019-04-22T03:35:31.508Z,18.10
2019-04-22T03:36:49.224Z,14.70
2019-04-22T03:39:31.980Z,14.10
2019-04-22T03:40:18.229Z,15.30
2019-04-22T03:41:19.389Z,18.20
2019-04-22T03:43:27.756Z,16.20
2019-04-22T03:45:22.362Z,16.30
2019-04-22T03:46:17.106Z,18.00
2019-04-22T03:48:07.199Z,15.50
2019-04-22T03:49:30.761Z,15.20
2019-04-22T03:51:18.453Z,18.20
2019-04-22T03:53:21.045Z,16.60
2019-04-22T03:54:21.283Z,21.40
2019-04-22T03:55:09.206Z,16.20
2019-04-22T03:56:29.094Z,20.00
2019-04-22T03:58:23.779Z,17.80
2019-04-22T03:59:17.853Z,16.80
2019-04-22T04:00:17.464Z,17.40
2019-04-22T04:02:29.280Z,21.30
2019-04-22T04:03:07.027Z,18.80
2019-04-22T04:04:19.146Z,18.60
2019-04-22T04:05:10.841Z,19.80
2019-04-22T04:06:06.726Z,20.10
2019-04-22T04:09:18.460Z,17.70
2019-04-22T04:10:25.889Z,18.60
2019-04-22T04:11:06.982Z,20.70
2019-04-22T04:13:08.331Z,21.40
2019-04-22T04:14:19.558Z,18.90
2019-04-22T04:15:23.575Z,18.50
2019-04-22T04:16:12.906Z,18.20
2019-04-22T04:17:18.167Z,17.20
2019-04-22T04:19:13.807Z,20.30
2019-04-22T04:21:26.686Z,17.60
2019-04-22T04:22:22.151Z,19.40
2019-04-22T04:23:24.136Z,18.30
2019-04-22T04:25:35.485Z,16.40
2019-04-22T04:28:47.716Z,21.20
2019-04-22T04:29:27.977Z,18.30
2019-04-22T04:30:23.250Z,18.00
2019-04-22T04:31:21.898Z,17.80
2019-04-22T04:32:27.322Z,18.70
2019-04-22T04:33:18.514Z,20.70
2019-04-22T04:34:19.705Z,17.10
2019-04-22T04:35:32.372Z,18.90
2019-04-22T04:36:07.969Z,16.60
2019-04-22T04:37:38.367Z,17.50
2019-04-22T04:38:00.617Z,21.00
2019-04-22T04:39:21.421Z,20.50
2019-04-22T04:40:26.798Z,20.30
2019-04-22T04:41:17.220Z,14.60
2019-04-22T04:42:28.581Z,17.60
2019-04-22T04:43:07.752Z,14.70
2019-04-22T04:46:14.143Z,15.70
2019-04-22T04:47:33.548Z,19.90
2019-04-22T04:48:18.481Z,17.30
2019-04-22T04:51:20.008Z,12.80
2019-04-22T04:52:19.942Z,12.60
2019-04-22T04:53:12.874Z,14.50
2019-04-22T04:54:28.827Z,13.30
2019-04-22T04:56:21.029Z,11.90
2019-04-22T04:57:14.475Z,10.70
2019-04-22T04:58:34.428Z,13.90
2019-04-22T05:01:20.958Z,15.90
2019-04-22T05:02:19.920Z,12.00
2019-04-22T05:03:20.437Z,11.60
2019-04-22T05:04:15.063Z,12.30
2019-04-22T05:06:16.496Z,13.00
2019-04-22T05:08:16.744Z,11.70
2019-04-22T05:09:16.622Z,12.70
2019-04-22T05:11:14.300Z,12.80
2019-04-22T05:12:27.623Z,13.90
2019-04-22T05:14:11.920Z,15.80
2019-04-22T05:15:15.388Z,13.90
2019-04-22T05:17:12.971Z,14.30
2019-04-22T05:19:15.079Z,15.20
2019-04-22T05:21:16.245Z,19.60
2019-04-22T05:22:09.115Z,14.20
2019-04-22T05:23:09.470Z,15.60
2019-04-22T05:24:15.002Z,15.80
2019-04-22T05:25:11.770Z,16.70
2019-04-22T05:26:12.625Z,15.80
2019-04-22T05:27:15.017Z,17.70
2019-04-22T05:28:06.857Z,16.60
2019-04-22T05:29:08.476Z,15.70
2019-04-22T05:30:23.467Z,16.90
2019-04-22T05:31:08.642Z,17.10
2019-04-22T05:32:02.662Z,18.40
2019-04-22T05:33:01.476Z,15.90
2019-04-22T05:34:08.467Z,15.80
2019-04-22T05:35:08.286Z,18.60
2019-04-22T05:36:07.238Z,19.10
2019-04-22T05:37:13.148Z,15.60
2019-04-22T05:38:10.605Z,18.50
2019-04-22T05:39:06.125Z,16.00
2019-04-22T05:40:13.342Z,17.10
2019-04-22T05:41:02.598Z,17.50
2019-04-22T05:42:10.322Z,17.30
2019-04-22T05:43:01.854Z,16.00
2019-04-22T05:44:08.187Z,18.20
2019-04-22T05:45:13.362Z,15.10
2019-04-22T05:46:02.698Z,15.10
2019-04-22T05:47:08.431Z,18.60
2019-04-22T05:48:02.795Z,16.00
2019-04-22T05:49:09.734Z,14.50
2019-04-22T05:49:58.220Z,14.30
2019-04-22T05:51:07.764Z,16.20
2019-04-22T05:52:05.218Z,16.40
2019-04-22T05:53:03.406Z,14.30
2019-04-22T05:55:09.714Z,14.50
2019-04-22T05:56:12.498Z,14.40
2019-04-22T05:57:11.279Z,15.50
2019-04-22T05:58:01.353Z,16.30
2019-04-22T05:59:04.577Z,14.90
2019-04-22T06:00:06.325Z,14.80
2019-04-22T06:01:36.482Z,16.40
2019-04-22T06:02:05.242Z,15.70
2019-04-22T06:03:07.006Z,14.30
2019-04-22T06:04:11.462Z,13.60
2019-04-22T06:05:07.035Z,13.50
2019-04-22T06:06:09.002Z,18.40
2019-04-22T06:07:04.997Z,12.20
2019-04-22T06:08:03.998Z,15.90
2019-04-22T06:09:04.009Z,13.00
2019-04-22T06:10:11.643Z,12.70
2019-04-22T06:11:09.655Z,14.10
2019-04-22T06:11:59.121Z,14.60
2019-04-22T06:13:02.173Z,17.90
2019-04-22T06:14:05.861Z,14.40
2019-04-22T06:15:10.118Z,12.40
2019-04-22T06:16:07.394Z,11.80
2019-04-22T06:17:06.481Z,11.10
2019-04-22T06:18:16.120Z,12.30
2019-04-22T06:19:08.749Z,13.20
2019-04-22T06:21:09.389Z,12.70
2019-04-22T06:22:04.368Z,12.90
2019-04-22T06:24:10.621Z,12.90
2019-04-22T06:25:17.053Z,13.40
2019-04-22T06:27:19.146Z,10.80
2019-04-22T06:28:13.549Z,10.90
2019-04-22T06:29:09.239Z,13.30
2019-04-22T06:30:04.323Z,13.30
2019-04-22T06:31:14.010Z,14.60
2019-04-22T06:33:09.408Z,15.00
2019-04-22T06:34:10.792Z,10.80
2019-04-22T06:35:11.304Z,13.70
2019-04-22T06:38:30.172Z,13.80
2019-04-22T06:39:10.415Z,14.20
2019-04-22T06:40:08.796Z,13.30
2019-04-22T06:41:09.292Z,10.70
2019-04-22T06:42:08.031Z,13.20
2019-04-22T06:43:10.335Z,12.80
2019-04-22T06:44:16.200Z,11.30
2019-04-22T06:46:08.484Z,12.30
2019-04-22T06:47:05.248Z,14.30
2019-04-22T06:48:07.629Z,11.70
2019-04-22T06:49:09.633Z,12.70
2019-04-22T06:50:08.717Z,12.40
2019-04-22T06:51:06.825Z,13.10
2019-04-22T06:52:17.760Z,12.90
2019-04-22T06:53:05.794Z,15.70
2019-04-22T06:54:07.498Z,13.20
2019-04-22T06:55:13.196Z,11.40
2019-04-22T06:56:05.195Z,11.30
2019-04-22T06:57:06.238Z,11.50
2019-04-22T06:58:04.981Z,11.30
2019-04-22T06:59:06.985Z,10.70
2019-04-22T07:00:05.549Z,11.40
2019-04-22T07:01:11.368Z,12.80
2019-04-22T07:02:11.418Z,10.70
2019-04-22T07:04:16.752Z,11.90
2019-04-22T07:05:12.905Z,13.30
2019-04-22T07:06:07.994Z,9.20
2019-04-22T07:07:08.357Z,9.90
2019-04-22T07:08:16.470Z,11.60
2019-04-22T07:09:25.304Z,9.90
2019-04-22T07:10:14.823Z,9.40
2019-04-22T07:11:01.596Z,14.60
2019-04-22T07:12:06.384Z,9.90
2019-04-22T07:13:10.716Z,11.20
2019-04-22T07:14:04.256Z,10.30
2019-04-22T07:15:16.252Z,11.00
2019-04-22T07:16:08.902Z,12.00
2019-04-22T07:17:03.698Z,10.90
2019-04-22T07:18:11.579Z,8.90
2019-04-22T07:19:09.226Z,10.40
2019-04-22T07:20:04.139Z,9.60
2019-04-22T07:23:08.286Z,11.70
2019-04-22T07:24:20.179Z,10.10
2019-04-22T07:25:06.505Z,9.80
2019-04-22T07:26:06.034Z,8.70
2019-04-22T07:27:08.625Z,8.00
2019-04-22T07:28:08.295Z,8.20
2019-04-22T07:29:07.731Z,9.10
2019-04-22T07:30:09.229Z,8.80
2019-04-22T07:32:07.856Z,9.90
2019-04-22T07:34:14.547Z,9.40
2019-04-22T07:35:08.727Z,12.30
2019-04-22T07:36:53.482Z,7.10
2019-04-22T07:38:10.763Z,7.30
2019-04-22T07:39:04.466Z,8.30
2019-04-22T07:40:02.370Z,9.30
2019-04-22T07:41:10.482Z,9.50
2019-04-22T07:42:05.262Z,8.50
2019-04-22T07:43:11.931Z,9.30
2019-04-22T07:44:13.180Z,9.10
2019-04-22T07:45:26.596Z,10.70
2019-04-22T07:46:11.335Z,10.30
2019-04-22T07:47:14.675Z,7.80
2019-04-22T07:48:13.021Z,7.60
2019-04-22T07:50:09.847Z,10.20
2019-04-22T07:51:09.544Z,7.40
2019-04-22T07:52:06.117Z,6.60
2019-04-22T07:53:06.854Z,6.70
2019-04-22T07:54:09.029Z,7.20
2019-04-22T07:55:04.293Z,6.30
2019-04-22T07:56:05.423Z,7.40
2019-04-22T07:57:15.113Z,6.90
2019-04-22T07:58:10.290Z,6.30
2019-04-22T07:59:11.983Z,5.50
2019-04-22T08:00:12.107Z,8.30
2019-04-22T08:01:12.358Z,6.50
2019-04-22T08:02:10.118Z,7.50
2019-04-22T08:03:11.894Z,9.00
2019-04-22T08:04:16.171Z,8.00
2019-04-22T08:06:11.945Z,7.30
2019-04-22T08:08:17.457Z,5.60
2019-04-22T08:09:13.813Z,5.90
2019-04-22T08:10:14.287Z,5.60
2019-04-22T08:12:04.201Z,7.50
2019-04-22T08:13:05.436Z,8.60
2019-04-22T08:14:06.866Z,7.10
2019-04-22T08:15:06.267Z,7.00
2019-04-22T08:17:30.855Z,6.10
2019-04-22T08:19:14.632Z,6.70
2019-04-22T08:21:04.244Z,6.40
2019-04-22T08:22:23.898Z,5.80
2019-04-22T08:23:09.644Z,7.30
2019-04-22T08:24:07.932Z,6.00
2019-04-22T08:25:04.207Z,6.50
2019-04-22T08:26:09.245Z,5.70
2019-04-22T08:28:10.158Z,5.90
2019-04-22T08:31:07.662Z,5.80
2019-04-22T08:32:10.428Z,6.90
2019-04-22T08:33:13.834Z,5.30
2019-04-22T08:34:14.309Z,6.60
2019-04-22T08:35:18.097Z,6.00
2019-04-22T08:37:35.452Z,7.40
2019-04-22T08:38:09.951Z,5.60
2019-04-22T08:39:07.884Z,6.60
2019-04-22T08:40:12.608Z,6.70
2019-04-22T08:41:16.334Z,6.00
2019-04-22T08:42:16.218Z,6.20
2019-04-22T08:43:14.434Z,4.90
2019-04-22T08:45:29.980Z,5.80
2019-04-22T08:46:06.221Z,5.90
2019-04-22T08:47:11.217Z,4.80
2019-04-22T08:48:11.086Z,6.30
2019-04-22T08:49:07.191Z,5.40
2019-04-22T08:50:07.732Z,6.60
2019-04-22T08:51:09.040Z,5.50
2019-04-22T08:52:11.519Z,8.50
2019-04-22T08:53:10.994Z,4.90
2019-04-22T08:54:13.696Z,7.50
2019-04-22T08:55:14.340Z,8.90
2019-04-22T08:56:17.194Z,5.90
2019-04-22T08:57:11.062Z,4.30
2019-04-22T08:59:19.853Z,5.10
2019-04-22T09:00:07.150Z,4.30
2019-04-22T09:01:11.339Z,5.70
2019-04-22T09:02:12.088Z,5.30
2019-04-22T09:03:27.657Z,8.30
2019-04-22T09:05:20.578Z,5.30
2019-04-22T09:06:10.999Z,5.70
2019-04-22T09:07:27.124Z,6.80
2019-04-22T09:09:06.252Z,4.20
2019-04-22T09:10:10.334Z,5.70
2019-04-22T09:11:16.048Z,4.90
2019-04-22T09:12:07.893Z,5.30
2019-04-22T09:13:22.515Z,4.90
2019-04-22T09:14:09.735Z,4.10
2019-04-22T09:15:02.428Z,4.20
2019-04-22T09:16:14.564Z,5.00
2019-04-22T09:17:11.367Z,5.10
2019-04-22T09:18:08.168Z,5.00
2019-04-22T09:19:08.833Z,5.70
2019-04-22T09:20:06.726Z,6.40
2019-04-22T09:21:15.468Z,4.00
2019-04-22T09:22:11.274Z,4.40
2019-04-22T09:23:07.274Z,3.80
2019-04-22T09:24:10.313Z,3.80
2019-04-22T09:25:08.433Z,4.60
2019-04-22T09:26:13.337Z,3.50
2019-04-22T09:27:13.114Z,3.80
2019-04-22T09:28:10.319Z,4.60
2019-04-22T09:29:14.585Z,5.30
2019-04-22T09:30:13.176Z,5.20
2019-04-22T09:31:17.644Z,4.80
2019-04-22T09:32:11.551Z,4.00
2019-04-22T09:35:27.481Z,3.40
2019-04-22T09:36:18.885Z,4.80
2019-04-22T09:37:21.094Z,4.90
2019-04-22T09:38:25.373Z,4.80
2019-04-22T09:39:10.642Z,2.80
2019-04-22T09:41:14.179Z,4.50
2019-04-22T09:43:10.091Z,2.90
2019-04-22T09:44:24.614Z,5.10
2019-04-22T09:46:10.240Z,5.00
2019-04-22T09:47:07.364Z,5.30
2019-04-22T09:48:16.620Z,3.70
2019-04-22T09:49:12.236Z,3.00
2019-04-22T09:50:17.327Z,2.70
2019-04-22T09:51:05.910Z,3.20
2019-04-22T09:52:13.294Z,3.30
2019-04-22T09:53:08.641Z,4.30
2019-04-22T09:54:20.224Z,5.30
2019-04-22T09:56:10.171Z,5.30
2019-04-22T09:57:09.016Z,4.80
2019-04-22T09:58:12.407Z,3.80
2019-04-22T09:59:07.534Z,4.20
2019-04-22T10:00:10.848Z,2.80
2019-04-22T10:01:21.124Z,5.10
2019-04-22T10:03:27.062Z,4.00
2019-04-22T10:04:07.215Z,4.40
2019-04-22T10:05:11.523Z,3.40
2019-04-22T10:06:16.632Z,6.00
2019-04-22T10:07:13.839Z,3.10
2019-04-22T10:08:21.860Z,3.20
2019-04-22T10:10:15.140Z,3.00
2019-04-22T10:11:14.350Z,4.60
2019-04-22T10:12:13.119Z,4.80
2019-04-22T10:13:13.988Z,3.70
2019-04-22T10:14:28.483Z,5.00
2019-04-22T10:15:06.205Z,3.70
2019-04-22T10:16:12.258Z,6.30
2019-04-22T10:17:06.691Z,4.50
2019-04-22T10:18:14.048Z,7.70
2019-04-22T10:19:12.039Z,5.00
2019-04-22T10:20:13.345Z,4.60
2019-04-22T10:21:18.995Z,3.40
2019-04-22T10:22:10.462Z,3.00
2019-04-22T10:23:17.010Z,4.00
2019-04-22T10:24:09.275Z,3.00
2019-04-22T10:25:14.562Z,6.30
2019-04-22T10:26:14.293Z,6.20
2019-04-22T10:27:07.961Z,4.10
2019-04-22T10:28:14.844Z,4.90
2019-04-22T10:29:13.477Z,3.10
2019-04-22T10:30:33.566Z,3.10
2019-04-22T10:31:10.969Z,5.00
2019-04-22T10:32:07.162Z,2.80
2019-04-22T10:33:04.494Z,2.60
2019-04-22T10:33:56.231Z,4.30
2019-04-22T10:34:49.988Z,3.80
2019-04-22T10:35:45.537Z,3.90
2019-04-22T10:36:52.731Z,2.70
2019-04-22T10:37:44.168Z,4.20
2019-04-22T10:38:44.553Z,3.20
2019-04-22T10:39:52.964Z,3.00
2019-04-22T10:40:44.837Z,5.30
2019-04-22T10:41:44.418Z,2.90
2019-04-22T10:42:45.348Z,2.90
2019-04-22T10:43:45.367Z,3.80
2019-04-22T10:44:45.242Z,4.80
2019-04-22T10:45:44.313Z,4.40
2019-04-22T10:46:44.440Z,3.50
2019-04-22T10:47:45.739Z,3.80
2019-04-22T10:48:44.391Z,3.10
2019-04-22T10:49:44.512Z,4.60
2019-04-22T10:50:44.434Z,3.00
2019-04-22T10:51:44.554Z,3.20
2019-04-22T10:52:45.548Z,5.50
2019-04-22T10:53:44.477Z,2.50
2019-04-22T10:54:45.471Z,3.90
2019-04-22T10:55:46.816Z,4.10
2019-04-22T10:56:45.225Z,3.70
2019-04-22T10:57:44.551Z,3.00
2019-04-22T10:58:44.746Z,5.00
2019-04-22T10:59:44.924Z,2.40
2019-04-22T11:00:45.326Z,3.10
2019-04-22T11:01:44.636Z,4.50
2019-04-22T11:02:45.756Z,4.70
2019-04-22T11:03:45.643Z,3.50
2019-04-22T11:04:45.983Z,4.80
2019-04-22T11:05:46.128Z,4.20
2019-04-22T11:06:52.371Z,5.00
2019-04-22T11:07:51.961Z,3.70
2019-04-22T11:08:52.299Z,2.50
2019-04-22T11:09:52.096Z,3.10
2019-04-22T11:11:00.386Z,3.50
2019-04-22T11:11:55.822Z,4.20
2019-04-22T11:12:45.223Z,3.10
2019-04-22T11:13:45.925Z,3.20
2019-04-22T11:14:45.549Z,4.00
2019-04-22T11:15:44.897Z,3.70
2019-04-22T11:16:45.568Z,2.40
2019-04-22T11:17:44.932Z,3.70
2019-04-22T11:18:45.443Z,3.60
2019-04-22T11:19:45.830Z,4.40
2019-04-22T11:20:45.001Z,3.30
2019-04-22T11:21:58.878Z,3.70
2019-04-22T11:22:45.038Z,7.90
2019-04-22T11:23:45.053Z,5.50
2019-04-22T11:24:46.581Z,5.10
2019-04-22T11:25:46.096Z,3.30
2019-04-22T11:26:45.229Z,3.30
2019-04-22T11:27:45.156Z,5.00
2019-04-22T11:28:45.490Z,5.00
2019-04-22T11:29:45.667Z,3.30
2019-04-22T11:30:45.183Z,37.70
2019-04-22T11:31:46.415Z,4.50
2019-04-22T11:32:46.504Z,4.40
2019-04-22T11:33:45.251Z,4.50
2019-04-22T11:34:45.274Z,3.90
2019-04-22T11:35:45.905Z,4.00
2019-04-22T11:36:45.305Z,2.90
2019-04-22T11:37:46.607Z,2.90
2019-04-22T11:38:52.370Z,2.40
2019-04-22T11:39:46.937Z,2.80
2019-04-22T11:40:49.747Z,3.20
2019-04-22T11:41:46.407Z,2.60
2019-04-22T11:42:46.046Z,2.70
2019-04-22T11:43:45.437Z,3.10
2019-04-22T11:44:45.509Z,3.50
2019-04-22T11:45:46.967Z,3.10
2019-04-22T11:46:45.496Z,2.90
2019-04-22T11:47:45.611Z,4.10
2019-04-22T11:48:45.672Z,4.70
2019-04-22T11:49:45.863Z,4.70
2019-04-22T11:50:46.155Z,5.00
2019-04-22T11:51:45.760Z,5.30
2019-04-22T11:52:46.881Z,2.80
2019-04-22T11:53:46.854Z,4.20
2019-04-22T11:54:46.727Z,6.40
2019-04-22T11:55:46.741Z,3.40
2019-04-22T11:56:47.206Z,4.40
2019-04-22T11:57:45.719Z,3.70
2019-04-22T11:58:46.920Z,3.00
2019-04-22T11:59:46.947Z,3.60
2019-04-22T12:00:45.764Z,3.10
2019-04-22T12:01:46.808Z,2.20
2019-04-22T12:02:47.158Z,10.50
2019-04-22T12:04:45.851Z,3.40
2019-04-22T12:05:45.998Z,4.50
2019-04-22T12:06:46.187Z,2.40
2019-04-22T12:07:46.968Z,3.40
2019-04-22T12:08:46.004Z,3.70
2019-04-22T12:09:45.976Z,5.10
2019-04-22T12:10:52.594Z,5.80
2019-04-22T12:11:46.868Z,4.40
2019-04-22T12:13:46.413Z,7.50
2019-04-22T12:14:46.038Z,13.70
2019-04-22T12:15:46.823Z,7.90
2019-04-22T12:16:47.574Z,6.10
2019-04-22T12:17:46.263Z,7.70
2019-04-22T12:18:47.250Z,4.30
2019-04-22T12:19:46.393Z,3.90
2019-04-22T12:20:47.476Z,2.70
2019-04-22T12:21:46.831Z,4.60
2019-04-22T12:22:47.302Z,3.60
2019-04-22T12:23:47.237Z,3.00
2019-04-22T12:24:46.233Z,3.30
2019-04-22T12:26:46.423Z,3.40
2019-04-22T12:27:47.270Z,3.10
2019-04-22T12:28:46.806Z,2.20
2019-04-22T12:29:47.063Z,2.90
2019-04-22T12:30:47.769Z,3.20
2019-04-22T12:31:47.268Z,2.00
2019-04-22T12:32:46.391Z,1.80
2019-04-22T12:33:47.658Z,3.10
2019-04-22T12:34:47.182Z,2.70
2019-04-22T12:35:46.548Z,3.60
2019-04-22T12:36:46.903Z,4.40
2019-04-22T12:37:52.846Z,4.60
2019-04-22T12:38:47.493Z,3.50
2019-04-22T12:39:47.799Z,3.40
2019-04-22T12:40:54.415Z,2.40
2019-04-22T12:41:46.563Z,3.60
2019-04-22T12:42:47.202Z,2.40
2019-04-22T12:43:47.382Z,4.10
2019-04-22T12:44:47.693Z,3.40
2019-04-22T12:45:47.865Z,3.90
2019-04-22T12:46:47.989Z,2.80
2019-04-22T12:47:46.682Z,2.50
2019-04-22T12:48:46.937Z,4.10
2019-04-22T12:49:54.303Z,2.90
2019-04-22T12:50:49.985Z,5.10
2019-04-22T12:51:47.353Z,2.10
2019-04-22T12:52:53.336Z,3.00
2019-04-22T12:53:46.835Z,1.80
2019-04-22T12:54:46.960Z,2.40
2019-04-22T12:55:48.102Z,2.00
2019-04-22T12:56:47.922Z,2.40
2019-04-22T12:57:48.363Z,3.90
2019-04-22T12:58:47.676Z,3.90
2019-04-22T12:59:47.937Z,8.60
2019-04-22T13:00:48.423Z,4.40
2019-04-22T13:01:47.004Z,2.80
2019-04-22T13:02:47.291Z,3.00
2019-04-22T13:03:47.016Z,2.60
2019-04-22T13:04:47.809Z,3.70
2019-04-22T13:05:47.101Z,3.60
2019-04-22T13:06:48.052Z,1.70
2019-04-22T13:07:47.443Z,2.40
2019-04-22T13:08:47.711Z,2.10
2019-04-22T13:09:47.410Z,4.70
2019-04-22T13:10:56.597Z,2.30
2019-04-22T13:11:48.852Z,3.20
2019-04-22T13:12:47.193Z,3.50
2019-04-22T13:13:47.218Z,5.70
2019-04-22T13:14:48.710Z,1.90
2019-04-22T13:15:48.829Z,4.00
2019-04-22T13:16:47.385Z,2.20
2019-04-22T13:17:59.514Z,3.50
2019-04-22T13:18:53.791Z,3.10
2019-04-22T13:19:47.846Z,5.00
2019-04-22T13:20:48.640Z,3.00
2019-04-22T13:21:48.878Z,4.80
2019-04-22T13:22:48.551Z,4.00
2019-04-22T13:23:48.725Z,3.50
2019-04-22T13:24:47.916Z,3.00
2019-04-22T13:25:47.451Z,2.80
2019-04-22T13:26:48.791Z,1.80
2019-04-22T13:27:48.811Z,5.10
2019-04-22T13:28:47.511Z,5.20
2019-04-22T13:29:48.766Z,4.40
2019-04-22T13:30:48.645Z,3.60
2019-04-22T13:31:48.767Z,4.30
2019-04-22T13:32:49.040Z,5.20
2019-04-22T13:33:50.971Z,2.90
2019-04-22T13:34:51.902Z,2.30
2019-04-22T13:35:48.054Z,2.30
2019-04-22T13:36:48.809Z,1.60
2019-04-22T13:37:48.731Z,1.90
2019-04-22T13:38:48.927Z,1.30
2019-04-22T13:39:48.990Z,8.40
2019-04-22T13:41:02.157Z,10.00
2019-04-22T13:41:52.433Z,4.30
2019-04-22T13:42:49.119Z,3.70
2019-04-22T13:43:49.285Z,1.80
2019-04-22T13:44:47.829Z,3.30
2019-04-22T13:45:47.847Z,1.80
2019-04-22T13:47:04.121Z,2.50
2019-04-22T13:48:02.957Z,2.40
2019-04-22T13:49:14.583Z,2.10
2019-04-22T13:50:27.894Z,3.00
2019-04-22T13:51:16.133Z,2.00
2019-04-22T13:52:22.621Z,2.10
2019-04-22T13:53:28.971Z,3.60
2019-04-22T13:54:42.499Z,2.50
2019-04-22T13:55:15.859Z,3.80
2019-04-22T13:56:15.369Z,2.20
2019-04-22T13:57:07.966Z,2.10
2019-04-22T13:58:03.870Z,3.10
2019-04-22T13:59:00.362Z,1.90
2019-04-22T13:59:53.754Z,2.80
2019-04-22T14:00:49.389Z,2.00
2019-04-22T14:01:48.453Z,1.70
2019-04-22T14:02:48.541Z,2.80
2019-04-22T14:03:48.928Z,2.90
2019-04-22T14:04:48.433Z,1.90
2019-04-22T14:05:48.821Z,3.50
2019-04-22T14:06:49.057Z,2.10
2019-04-22T14:07:49.009Z,2.30
2019-04-22T14:08:49.421Z,2.70
2019-04-22T14:09:48.658Z,2.10
2019-04-22T14:10:48.489Z,1.10
2019-04-22T14:11:52.905Z,4.10
2019-04-22T14:12:48.792Z,2.30
2019-04-22T14:13:48.392Z,1.20
2019-04-22T14:14:50.516Z,1.60
2019-04-22T14:15:48.686Z,11.30
2019-04-22T14:16:49.114Z,5.60
2019-04-22T14:17:49.191Z,1.70
2019-04-22T14:18:49.782Z,3.10
2019-04-22T14:19:48.616Z,2.70
2019-04-22T14:20:49.193Z,5.40
2019-04-22T14:21:49.681Z,3.10
2019-04-22T14:22:48.649Z,1.30
2019-04-22T14:23:48.782Z,1.00
2019-04-22T14:24:48.860Z,1.30
2019-04-22T14:25:48.640Z,3.40
2019-04-22T14:27:02.553Z,2.50
2019-04-22T14:27:56.534Z,2.40
2019-04-22T14:28:49.944Z,5.00
2019-04-22T14:29:49.421Z,4.90
2019-04-22T14:30:48.730Z,4.00
2019-04-22T14:32:48.771Z,3.60
2019-04-22T14:33:53.631Z,4.00
2019-04-22T14:34:49.170Z,3.30
2019-04-22T14:35:49.936Z,3.20
2019-04-22T14:36:48.854Z,1.90
2019-04-22T14:37:50.192Z,3.60
2019-04-22T14:38:50.150Z,2.10
2019-04-22T14:39:48.910Z,2.10
2019-04-22T14:40:49.899Z,2.90